createdAt,value
2023-02-24T00:01:13.491Z,1.70
2023-02-24T00:03:41.798Z,1.60
2023-02-24T00:06:12.161Z,1.60
2023-02-24T00:08:39.975Z,1.60
2023-02-24T00:11:09.274Z,1.60
2023-02-24T00:13:36.358Z,1.50
2023-02-24T00:16:03.996Z,1.50
2023-02-24T00:18:32.548Z,1.50
2023-02-24T00:21:08.366Z,1.50
2023-02-24T00:23:38.516Z,1.40
2023-02-24T00:26:06.806Z,1.40
2023-02-24T00:28:34.140Z,1.40
2023-02-24T00:31:05.922Z,1.30
2023-02-24T00:33:33.445Z,1.30
2023-02-24T00:36:08.591Z,1.40
2023-02-24T00:38:38.861Z,1.20
2023-02-24T00:41:14.570Z,1.20
2023-02-24T00:43:43.646Z,1.20
2023-02-24T00:46:13.558Z,1.20
2023-02-24T00:48:46.002Z,1.10
2023-02-24T00:51:13.326Z,1.10
2023-02-24T00:53:40.196Z,1.10
2023-02-24T00:56:07.480Z,1.10
2023-02-24T00:58:35.206Z,0.70
2023-02-24T01:01:03.756Z,1.00
2023-02-24T01:03:32.073Z,1.00
2023-02-24T01:06:05.220Z,1.00
2023-02-24T01:08:38.176Z,1.00
2023-02-24T01:11:24.052Z,0.90
2023-02-24T01:13:50.950Z,0.90
2023-02-24T01:16:20.892Z,1.10
2023-02-24T01:18:48.160Z,0.90
2023-02-24T01:21:20.042Z,0.90
2023-02-24T01:23:47.980Z,0.80
2023-02-24T01:26:16.001Z,0.80
2023-02-24T01:28:43.607Z,0.80
2023-02-24T01:31:10.467Z,0.80
2023-02-24T01:33:40.220Z,0.80
2023-02-24T01:36:12.242Z,0.80
2023-02-24T01:38:39.470Z,0.80
2023-02-24T01:41:06.621Z,0.80
2023-02-24T01:43:34.460Z,0.80
2023-02-24T01:46:01.587Z,0.80
2023-02-24T01:48:30.175Z,0.80
2023-02-24T01:50:57.283Z,0.80
2023-02-24T01:53:24.268Z,0.80
2023-02-24T01:55:51.418Z,0.80
2023-02-24T01:58:27.752Z,0.80
2023-02-24T02:00:55.502Z,0.80
2023-02-24T02:03:29.761Z,0.80
2023-02-24T02:05:59.647Z,0.80
2023-02-24T02:08:26.945Z,1.90
2023-02-24T02:10:59.116Z,0.90
2023-02-24T02:13:28.155Z,1.00
2023-02-24T02:16:13.311Z,0.90
2023-02-24T02:18:59.276Z,0.90
2023-02-24T02:21:46.757Z,0.90
2023-02-24T02:24:13.836Z,1.60
2023-02-24T02:26:59.367Z,0.80
2023-02-24T02:29:39.593Z,0.90
2023-02-24T02:32:25.622Z,0.90
2023-02-24T02:35:21.963Z,0.90
2023-02-24T02:37:58.535Z,1.00
2023-02-24T02:40:29.724Z,1.00
2023-02-24T02:43:02.432Z,1.10
2023-02-24T02:45:42.035Z,1.10
2023-02-24T02:48:15.660Z,1.10
2023-02-24T02:50:49.941Z,1.50
2023-02-24T02:53:37.690Z,1.20
2023-02-24T02:56:12.276Z,1.20
2023-02-24T02:58:40.264Z,1.20
2023-02-24T03:01:10.192Z,1.30
2023-02-24T03:03:45.920Z,1.20
2023-02-24T03:06:17.831Z,1.20
2023-02-24T03:08:47.705Z,1.30
2023-02-24T03:11:17.817Z,1.50
2023-02-24T03:13:45.799Z,1.20
2023-02-24T03:16:12.951Z,1.20
2023-02-24T03:18:45.175Z,1.20
2023-02-24T03:21:13.819Z,1.20
2023-02-24T03:23:46.656Z,1.20
2023-02-24T03:26:23.815Z,1.20
2023-02-24T03:28:54.256Z,1.20
2023-02-24T03:31:40.483Z,1.10
2023-02-24T03:34:09.876Z,1.10
2023-02-24T03:36:39.531Z,1.10
2023-02-24T03:39:07.000Z,1.10
2023-02-24T03:41:41.606Z,1.10
2023-02-24T03:44:11.335Z,1.10
2023-02-24T03:46:39.310Z,1.10
2023-02-24T03:49:13.340Z,1.10
2023-02-24T03:51:45.029Z,1.20
2023-02-24T03:54:20.909Z,1.20
2023-02-24T03:56:58.154Z,1.20
2023-02-24T03:59:25.388Z,1.20
2023-02-24T04:02:19.024Z,1.20
2023-02-24T04:04:49.184Z,1.20
2023-02-24T04:07:33.175Z,1.20
2023-02-24T04:10:00.298Z,1.20
2023-02-24T04:12:30.286Z,1.20
2023-02-24T04:15:05.225Z,1.10
2023-02-24T04:17:47.971Z,1.20
2023-02-24T04:20:20.370Z,1.20
2023-02-24T04:22:51.994Z,1.30
2023-02-24T04:25:20.044Z,1.30
2023-02-24T04:27:47.578Z,1.30
2023-02-24T04:30:14.586Z,1.30
2023-02-24T04:32:46.758Z,1.30
2023-02-24T04:35:14.436Z,1.60
2023-02-24T04:37:44.569Z,1.40
2023-02-24T04:40:19.509Z,1.70
2023-02-24T04:42:49.448Z,1.50
2023-02-24T04:45:17.218Z,1.50
2023-02-24T04:47:51.022Z,1.50
2023-02-24T04:50:23.148Z,1.60
2023-02-24T04:52:50.949Z,1.60
2023-02-24T04:55:18.287Z,1.70
2023-02-24T04:57:48.144Z,1.80
2023-02-24T05:00:21.247Z,1.80
2023-02-24T05:02:48.567Z,1.80
2023-02-24T05:05:16.271Z,2.30
2023-02-24T05:07:47.675Z,2.00
2023-02-24T05:10:15.541Z,2.80
2023-02-24T05:12:42.723Z,2.00
2023-02-24T05:15:09.881Z,2.10
2023-02-24T05:17:37.239Z,2.10
2023-02-24T05:20:23.708Z,2.20
2023-02-24T05:22:54.172Z,2.20
2023-02-24T05:25:21.211Z,2.20
2023-02-24T05:27:48.079Z,2.30
2023-02-24T05:30:15.197Z,2.30
2023-02-24T05:32:42.109Z,2.30
2023-02-24T05:35:11.188Z,2.40
2023-02-24T05:37:42.142Z,2.40
2023-02-24T05:40:13.780Z,2.40
2023-02-24T05:42:41.420Z,2.30
2023-02-24T05:45:11.239Z,3.40
2023-02-24T05:47:38.694Z,2.50
2023-02-24T05:50:05.865Z,2.60
2023-02-24T05:52:36.766Z,2.60
2023-02-24T05:55:07.439Z,2.60
2023-02-24T05:57:35.929Z,2.60
2023-02-24T06:00:19.324Z,2.70
2023-02-24T06:02:49.984Z,2.70
2023-02-24T06:05:30.567Z,2.80
2023-02-24T06:08:05.549Z,2.80
2023-02-24T06:10:33.954Z,2.80
2023-02-24T06:13:05.410Z,2.90
2023-02-24T06:15:35.548Z,2.90
2023-02-24T06:18:10.093Z,3.00
2023-02-24T06:20:45.451Z,3.00
2023-02-24T06:23:23.909Z,2.80
2023-02-24T06:25:58.409Z,3.00
2023-02-24T06:28:28.900Z,3.10
2023-02-24T06:30:56.755Z,3.10
2023-02-24T06:33:27.327Z,3.00
2023-02-24T06:35:54.626Z,3.00
2023-02-24T06:38:21.586Z,3.00
2023-02-24T06:40:52.208Z,3.00
2023-02-24T06:43:19.363Z,3.00
2023-02-24T06:45:46.070Z,3.00
2023-02-24T06:48:12.845Z,3.00
2023-02-24T06:50:42.117Z,3.00
2023-02-24T06:53:16.960Z,2.90
2023-02-24T06:55:46.324Z,3.00
2023-02-24T06:58:16.920Z,3.00
2023-02-24T07:00:46.294Z,3.00
2023-02-24T07:03:16.366Z,3.50
2023-02-24T07:06:11.102Z,3.00
2023-02-24T07:08:37.890Z,3.00
2023-02-24T07:11:06.412Z,3.10
2023-02-24T07:13:33.326Z,3.00
2023-02-24T07:16:04.092Z,3.10
2023-02-24T07:18:32.463Z,3.10
2023-02-24T07:21:05.110Z,3.10
2023-02-24T07:23:31.839Z,3.10
2023-02-24T07:25:58.764Z,3.10
2023-02-24T07:28:25.870Z,3.10
2023-02-24T07:30:52.664Z,3.10
2023-02-24T07:33:19.420Z,3.60
2023-02-24T07:35:50.920Z,3.10
2023-02-24T07:38:23.032Z,3.00
2023-02-24T07:40:50.155Z,3.00
2023-02-24T07:43:17.012Z,3.10
2023-02-24T07:45:43.750Z,3.00
2023-02-24T07:48:12.541Z,3.10
2023-02-24T07:50:41.967Z,3.40
2023-02-24T07:53:10.006Z,3.10
2023-02-24T07:55:36.669Z,3.50
2023-02-24T07:58:05.882Z,3.20
2023-02-24T08:00:50.093Z,3.20
2023-02-24T08:03:17.047Z,3.10
2023-02-24T08:05:43.743Z,3.30
2023-02-24T08:08:10.498Z,3.50
2023-02-24T08:10:37.322Z,3.40
2023-02-24T08:13:07.115Z,3.50
2023-02-24T08:15:36.743Z,3.50
2023-02-24T08:18:03.609Z,3.60
2023-02-24T08:20:36.219Z,3.60
2023-02-24T08:23:06.319Z,4.20
2023-02-24T08:25:36.415Z,3.70
2023-02-24T08:28:08.548Z,3.80
2023-02-24T08:30:39.364Z,4.60
2023-02-24T08:33:07.668Z,4.00
2023-02-24T08:35:38.198Z,4.00
2023-02-24T08:38:09.770Z,4.20
2023-02-24T08:40:37.403Z,4.10
2023-02-24T08:43:17.368Z,4.30
2023-02-24T08:45:44.785Z,4.30
2023-02-24T08:48:18.444Z,4.30
2023-02-24T08:50:49.139Z,4.40
2023-02-24T08:53:19.257Z,4.50
2023-02-24T08:55:46.847Z,5.10
2023-02-24T08:58:18.229Z,4.60
2023-02-24T09:00:53.417Z,4.90
2023-02-24T09:03:33.732Z,4.70
2023-02-24T09:06:03.402Z,4.80
2023-02-24T09:08:32.863Z,4.90
2023-02-24T09:11:00.706Z,4.90
2023-02-24T09:13:35.307Z,5.00
2023-02-24T09:16:02.392Z,5.10
2023-02-24T09:18:38.720Z,4.80
2023-02-24T09:21:28.521Z,5.20
2023-02-24T09:23:56.027Z,5.20
2023-02-24T09:26:22.916Z,5.70
2023-02-24T09:28:54.696Z,5.40
2023-02-24T09:31:24.163Z,5.60
2023-02-24T09:33:51.503Z,5.70
2023-02-24T09:36:28.104Z,5.70
2023-02-24T09:39:08.278Z,5.80
2023-02-24T09:41:53.832Z,5.80
2023-02-24T09:44:24.415Z,6.00
2023-02-24T09:46:59.186Z,6.20
2023-02-24T09:49:46.953Z,6.30
2023-02-24T09:52:18.646Z,6.40
2023-02-24T09:55:13.871Z,6.50
2023-02-24T09:58:08.998Z,6.50
2023-02-24T10:00:38.547Z,6.70
2023-02-24T10:03:48.139Z,6.80
2023-02-24T10:06:20.737Z,6.90
2023-02-24T10:08:49.765Z,7.00
2023-02-24T10:11:16.588Z,7.10
2023-02-24T10:13:49.938Z,7.20
2023-02-24T10:16:25.303Z,7.30
2023-02-24T10:19:11.821Z,7.40
2023-02-24T10:22:00.265Z,7.50
2023-02-24T10:24:34.435Z,7.60
2023-02-24T10:27:16.837Z,7.70
2023-02-24T10:29:43.644Z,7.80
2023-02-24T10:32:23.890Z,7.80
2023-02-24T10:34:51.607Z,7.80
2023-02-24T10:37:27.995Z,7.90
2023-02-24T10:40:09.691Z,7.90
2023-02-24T10:42:37.940Z,7.80
2023-02-24T10:45:17.253Z,7.80
2023-02-24T10:47:57.539Z,7.80
2023-02-24T10:50:25.714Z,7.90
2023-02-24T10:53:08.914Z,7.90
2023-02-24T10:55:45.134Z,8.00
2023-02-24T10:58:38.146Z,7.90
2023-02-24T11:01:13.133Z,8.10
2023-02-24T11:03:43.107Z,8.00
2023-02-24T11:06:40.159Z,8.00
2023-02-24T11:09:19.496Z,8.00
2023-02-24T11:12:05.234Z,8.00
2023-02-24T11:14:51.679Z,7.90
2023-02-24T11:17:20.004Z,7.90
2023-02-24T11:20:00.942Z,8.00
2023-02-24T11:22:32.387Z,8.00
2023-02-24T11:25:01.854Z,8.00
2023-02-24T11:27:28.718Z,8.00
2023-02-24T11:29:55.349Z,7.90
2023-02-24T11:32:22.350Z,7.90
2023-02-24T11:34:55.607Z,7.80
2023-02-24T11:37:25.349Z,7.80
2023-02-24T11:40:11.542Z,7.90
2023-02-24T11:42:49.061Z,8.00
2023-02-24T11:45:24.852Z,8.00
2023-02-24T11:47:53.394Z,8.10
2023-02-24T11:50:29.754Z,8.30
2023-02-24T11:52:57.165Z,8.40
2023-02-24T11:55:35.060Z,8.50
2023-02-24T11:58:03.284Z,8.60
2023-02-24T12:00:33.223Z,8.70
2023-02-24T12:03:18.791Z,8.80
2023-02-24T12:05:47.488Z,8.90
2023-02-24T12:08:17.412Z,8.90
2023-02-24T12:10:48.714Z,8.90
2023-02-24T12:13:15.349Z,8.90
2023-02-24T12:15:54.746Z,8.90
2023-02-24T12:18:25.520Z,9.00
2023-02-24T12:20:55.986Z,9.00
2023-02-24T12:23:23.946Z,9.00
2023-02-24T12:25:50.599Z,9.00
2023-02-24T12:28:29.944Z,9.00
2023-02-24T12:31:01.081Z,9.00
2023-02-24T12:33:33.961Z,9.00
2023-02-24T12:36:20.995Z,9.00
2023-02-24T12:38:50.739Z,9.00
2023-02-24T12:41:17.819Z,9.10
2023-02-24T12:43:54.111Z,9.20
2023-02-24T12:46:36.843Z,9.20
2023-02-24T12:49:14.925Z,9.40
2023-02-24T12:52:00.529Z,9.50
2023-02-24T12:54:34.144Z,9.70
2023-02-24T12:57:19.243Z,9.90
2023-02-24T12:59:46.050Z,10.10
2023-02-24T13:02:12.743Z,10.30
2023-02-24T13:04:51.117Z,10.70
2023-02-24T13:07:37.111Z,10.70
2023-02-24T13:10:18.605Z,11.00
2023-02-24T13:12:54.986Z,11.30
2023-02-24T13:15:22.656Z,11.50
2023-02-24T13:17:51.602Z,11.50
2023-02-24T13:20:27.758Z,11.50
2023-02-24T13:22:54.516Z,11.50
2023-02-24T13:25:23.656Z,11.50
2023-02-24T13:28:02.612Z,11.40
2023-02-24T13:30:41.914Z,11.30
2023-02-24T13:33:19.711Z,11.10
2023-02-24T13:35:51.063Z,10.90
2023-02-24T13:38:25.627Z,10.70
2023-02-24T13:40:52.501Z,10.60
2023-02-24T13:43:26.681Z,10.50
2023-02-24T13:45:54.867Z,10.40
2023-02-24T13:48:39.567Z,10.20
2023-02-24T13:51:26.855Z,10.20
2023-02-24T13:53:54.602Z,10.10
2023-02-24T13:56:22.348Z,10.00
2023-02-24T13:58:55.157Z,10.00
2023-02-24T14:01:22.345Z,10.00
2023-02-24T14:04:09.552Z,10.00
2023-02-24T14:06:39.376Z,10.10
2023-02-24T14:09:06.131Z,10.10
2023-02-24T14:11:34.374Z,10.20
2023-02-24T14:14:01.182Z,10.30
2023-02-24T14:16:29.409Z,10.40
2023-02-24T14:18:57.067Z,10.50
2023-02-24T14:21:24.891Z,10.80
2023-02-24T14:23:58.389Z,10.80
2023-02-24T14:26:25.230Z,11.00
2023-02-24T14:28:56.836Z,11.10
2023-02-24T14:31:24.362Z,11.30
2023-02-24T14:34:01.139Z,11.30
2023-02-24T14:36:31.955Z,11.50
2023-02-24T14:39:09.989Z,11.70
2023-02-24T14:41:36.768Z,11.80
2023-02-24T14:44:18.957Z,11.80
2023-02-24T14:46:55.502Z,11.80
2023-02-24T14:49:26.270Z,11.80
2023-02-24T14:51:57.973Z,11.80
2023-02-24T14:54:36.914Z,12.00
2023-02-24T14:57:03.664Z,12.10
2023-02-24T14:59:32.247Z,12.00
2023-02-24T15:01:59.033Z,12.10
2023-02-24T15:04:26.035Z,12.20
2023-02-24T15:06:52.831Z,12.20
2023-02-24T15:09:21.112Z,12.30
2023-02-24T15:11:47.897Z,12.40
2023-02-24T15:14:19.073Z,12.60
2023-02-24T15:16:47.074Z,12.80
2023-02-24T15:19:32.611Z,13.00
2023-02-24T15:21:59.345Z,13.20
2023-02-24T15:24:27.204Z,13.30
2023-02-24T15:27:19.531Z,13.40
2023-02-24T15:29:56.540Z,13.40
2023-02-24T15:32:23.585Z,13.40
2023-02-24T15:34:50.386Z,13.60
2023-02-24T15:37:22.845Z,13.70
2023-02-24T15:39:50.001Z,13.90
2023-02-24T15:42:16.762Z,13.70
2023-02-24T15:44:53.615Z,14.10
2023-02-24T15:47:23.545Z,14.20
2023-02-24T15:49:50.404Z,14.40
2023-02-24T15:52:20.511Z,14.50
2023-02-24T15:54:47.403Z,14.50
2023-02-24T15:57:15.043Z,14.50
2023-02-24T15:59:42.030Z,14.50
2023-02-24T16:02:17.523Z,14.50
2023-02-24T16:04:44.246Z,14.40
2023-02-24T16:07:20.130Z,14.10
2023-02-24T16:09:46.911Z,13.80
2023-02-24T16:12:14.869Z,13.40
2023-02-24T16:14:41.957Z,13.00
2023-02-24T16:17:13.549Z,12.80
2023-02-24T16:19:40.371Z,12.70
2023-02-24T16:22:08.834Z,12.40
2023-02-24T16:24:35.607Z,12.20
2023-02-24T16:27:02.456Z,12.00
2023-02-24T16:29:29.192Z,11.80
2023-02-24T16:31:55.996Z,11.50
2023-02-24T16:34:23.025Z,11.30
2023-02-24T16:36:49.882Z,11.10
2023-02-24T16:39:16.715Z,10.80
2023-02-24T16:41:43.553Z,10.70
2023-02-24T16:44:11.004Z,10.50
2023-02-24T16:46:38.116Z,10.40
2023-02-24T16:49:04.842Z,10.30
2023-02-24T16:51:31.584Z,10.30
2023-02-24T16:53:58.380Z,10.20
2023-02-24T16:56:25.062Z,10.10
2023-02-24T16:58:52.007Z,10.00
2023-02-24T17:01:20.110Z,9.90
2023-02-24T17:03:47.891Z,9.80
2023-02-24T17:06:14.652Z,9.70
2023-02-24T17:08:43.749Z,9.60
2023-02-24T17:11:11.448Z,9.50
2023-02-24T17:13:38.193Z,9.40
2023-02-24T17:16:05.145Z,9.40
2023-02-24T17:18:31.967Z,9.30
2023-02-24T17:20:58.694Z,9.20
2023-02-24T17:23:25.393Z,9.10
2023-02-24T17:25:52.945Z,9.10
2023-02-24T17:28:19.882Z,9.00
2023-02-24T17:30:46.666Z,9.00
2023-02-24T17:33:14.474Z,8.90
2023-02-24T17:35:41.806Z,8.90
2023-02-24T17:38:14.873Z,8.80
2023-02-24T17:40:44.709Z,8.70
2023-02-24T17:43:11.396Z,8.60
2023-02-24T17:45:42.938Z,8.50
2023-02-24T17:48:09.713Z,8.50
2023-02-24T17:50:36.512Z,8.40
2023-02-24T17:53:05.150Z,8.40
2023-02-24T17:55:31.802Z,8.40
2023-02-24T17:57:59.433Z,8.20
2023-02-24T18:00:26.747Z,8.10
2023-02-24T18:02:53.748Z,8.00
2023-02-24T18:05:26.593Z,8.00
2023-02-24T18:07:53.634Z,7.90
2023-02-24T18:10:20.645Z,7.80
2023-02-24T18:12:47.357Z,7.90
2023-02-24T18:15:14.011Z,7.60
2023-02-24T18:17:40.765Z,7.60
2023-02-24T18:20:07.693Z,7.60
2023-02-24T18:22:34.563Z,7.50
2023-02-24T18:25:01.307Z,7.50
2023-02-24T18:27:28.036Z,7.40
2023-02-24T18:29:54.974Z,7.40
2023-02-24T18:32:22.015Z,7.40
2023-02-24T18:34:48.919Z,7.30
2023-02-24T18:37:15.624Z,7.30
2023-02-24T18:39:42.607Z,7.20
2023-02-24T18:42:09.748Z,7.20
2023-02-24T18:44:36.732Z,7.10
2023-02-24T18:47:09.232Z,7.10
2023-02-24T18:49:36.302Z,7.10
2023-02-24T18:52:05.393Z,7.00
2023-02-24T18:54:32.448Z,7.00
2023-02-24T18:56:59.144Z,7.00
2023-02-24T18:59:25.912Z,6.90
2023-02-24T19:01:53.267Z,6.90
2023-02-24T19:04:20.270Z,6.80
2023-02-24T19:06:49.094Z,6.80
2023-02-24T19:09:16.268Z,6.70
2023-02-24T19:11:43.332Z,6.70
2023-02-24T19:14:12.020Z,6.20
2023-02-24T19:16:39.947Z,6.60
2023-02-24T19:19:06.759Z,6.60
2023-02-24T19:21:33.798Z,6.60
2023-02-24T19:24:01.203Z,6.50
2023-02-24T19:26:27.949Z,6.50
2023-02-24T19:28:54.798Z,6.50
2023-02-24T19:31:22.470Z,6.50
2023-02-24T19:33:55.983Z,6.50
2023-02-24T19:36:23.130Z,6.40
2023-02-24T19:38:50.227Z,6.40
2023-02-24T19:41:16.998Z,6.30
2023-02-24T19:43:43.910Z,6.30
2023-02-24T19:46:11.226Z,6.30
2023-02-24T19:48:37.989Z,6.20
2023-02-24T19:51:11.775Z,6.20
2023-02-24T19:53:38.570Z,6.20
2023-02-24T19:56:05.721Z,6.20
2023-02-24T19:58:32.627Z,6.20
2023-02-24T20:01:12.727Z,6.10
2023-02-24T20:03:40.200Z,6.10
2023-02-24T20:06:08.078Z,6.80
2023-02-24T20:08:34.955Z,6.00
2023-02-24T20:11:02.267Z,6.30
2023-02-24T20:13:29.318Z,6.00
2023-02-24T20:16:05.365Z,5.90
2023-02-24T20:18:32.350Z,5.90
2023-02-24T20:20:59.243Z,6.00
2023-02-24T20:23:26.182Z,5.90
2023-02-24T20:25:53.169Z,6.00
2023-02-24T20:28:22.487Z,6.00
2023-02-24T20:30:49.634Z,6.10
2023-02-24T20:33:16.831Z,6.10
2023-02-24T20:35:43.670Z,6.20
2023-02-24T20:38:10.465Z,6.20
2023-02-24T20:40:37.185Z,6.30
2023-02-24T20:43:04.893Z,6.20
2023-02-24T20:45:32.156Z,6.20
2023-02-24T20:47:59.121Z,6.20
2023-02-24T20:50:25.993Z,6.20
2023-02-24T20:52:52.787Z,6.20
2023-02-24T20:55:19.608Z,6.10
2023-02-24T20:57:46.344Z,6.10
2023-02-24T21:00:13.913Z,6.00
2023-02-24T21:02:41.464Z,6.00
2023-02-24T21:05:18.359Z,6.00
2023-02-24T21:07:45.141Z,5.90
2023-02-24T21:10:12.077Z,5.80
2023-02-24T21:12:39.099Z,5.80
2023-02-24T21:15:06.380Z,5.70
2023-02-24T21:17:34.381Z,5.70
2023-02-24T21:20:01.701Z,5.70
2023-02-24T21:22:31.505Z,5.70
2023-02-24T21:24:58.428Z,5.70
2023-02-24T21:27:25.297Z,5.70
2023-02-24T21:29:52.875Z,5.70
2023-02-24T21:32:19.860Z,5.60
2023-02-24T21:34:46.622Z,5.60
2023-02-24T21:37:13.409Z,5.60
2023-02-24T21:39:40.093Z,5.60
2023-02-24T21:42:07.509Z,5.60
2023-02-24T21:44:34.219Z,5.50
2023-02-24T21:47:00.880Z,5.50
2023-02-24T21:49:27.533Z,5.50
2023-02-24T21:51:55.218Z,5.70
2023-02-24T21:54:22.138Z,5.50
2023-02-24T21:56:48.797Z,5.40
2023-02-24T21:59:15.494Z,6.10
2023-02-24T22:01:43.073Z,5.00
2023-02-24T22:04:13.118Z,5.40
2023-02-24T22:06:40.035Z,5.50
2023-02-24T22:09:10.065Z,5.50
2023-02-24T22:11:38.465Z,5.50
2023-02-24T22:14:08.498Z,5.50
2023-02-24T22:16:35.464Z,5.70
2023-02-24T22:19:02.409Z,5.50
2023-02-24T22:21:29.696Z,5.40
2023-02-24T22:23:59.380Z,5.40
2023-02-24T22:26:26.750Z,5.40
2023-02-24T22:28:56.166Z,5.30
2023-02-24T22:31:24.151Z,5.50
2023-02-24T22:33:50.905Z,5.30
2023-02-24T22:36:21.992Z,5.30
2023-02-24T22:38:48.941Z,5.40
2023-02-24T22:41:16.919Z,5.40
2023-02-24T22:43:43.707Z,5.40
2023-02-24T22:46:16.681Z,5.40
2023-02-24T22:48:43.848Z,5.40
2023-02-24T22:51:10.994Z,5.60
2023-02-24T22:53:38.519Z,5.50
2023-02-24T22:56:05.702Z,5.60
2023-02-24T22:58:32.546Z,5.60
2023-02-24T23:00:59.807Z,5.60
2023-02-24T23:03:28.215Z,5.60
2023-02-24T23:05:57.692Z,5.60
2023-02-24T23:08:28.054Z,5.50
2023-02-24T23:10:55.082Z,5.50
2023-02-24T23:13:24.431Z,5.50
2023-02-24T23:15:51.270Z,5.40
2023-02-24T23:18:18.270Z,5.40
2023-02-24T23:20:45.055Z,5.30
2023-02-24T23:23:13.157Z,5.30
2023-02-24T23:25:39.845Z,5.20
2023-02-24T23:28:06.831Z,5.20
2023-02-24T23:30:33.821Z,5.30
2023-02-24T23:33:01.124Z,5.20
2023-02-24T23:35:27.870Z,5.20
2023-02-24T23:37:54.726Z,5.20
2023-02-24T23:40:26.154Z,5.10
2023-02-24T23:42:53.429Z,5.10
2023-02-24T23:45:20.202Z,5.10
2023-02-24T23:47:46.986Z,4.70
2023-02-24T23:50:13.607Z,5.00
2023-02-24T23:52:40.522Z,5.00
2023-02-24T23:55:07.627Z,5.00
2023-02-24T23:57:34.372Z,4.90
